Time;durP1;ratioP1;P1;durP2;ratioP2;P2;SDS_P1;SDS_P2;PMS_P1;PMS_P2;Temp;Humidity;BMP_temperature;BMP_pressure;BME280_temperature;BME280_humidity;BME280_pressure;Samples;Min_cycle;Max_cycle;Signal;HPM_P1;HPM_P2
2021/07/24 00:00:48;;;;;;;19.70;7.75;;;;;;;15.58;67.52;100259.81;126100;1096;22752;-54
2021/07/24 00:03:20;;;;;;;21.45;7.65;;;;;;;15.52;67.88;100271.05;125985;1096;24268;-60
2021/07/24 00:05:52;;;;;;;20.50;7.43;;;;;;;15.49;67.63;100254.44;126167;1095;22734;-57
2021/07/24 00:08:30;;;;;;;;;;;;;;;15.47;67.65;100257.77;126291;1095;22806;-57
2021/07/24 00:11:04;;;;;;;18.28;6.65;;;;;;;15.43;67.96;100262.12;126148;1096;22079;-59
2021/07/24 00:13:38;;;;;;;18.30;8.15;;;;;;;15.38;68.13;100255.95;126132;1096;22780;-59
2021/07/24 00:16:09;;;;;;;19.80;8.55;;;;;;;15.37;68.28;100253.66;126124;1095;22820;-58
2021/07/24 00:18:41;;;;;;;18.13;8.47;;;;;;;15.35;68.37;100254.15;126006;1096;22780;-57
2021/07/24 00:21:12;;;;;;;16.60;6.75;;;;;;;15.34;68.44;100249.81;126186;1095;27147;-57
2021/07/24 00:23:45;;;;;;;24.30;8.73;;;;;;;15.35;68.88;100245.71;126062;1096;24624;-58
2021/07/24 00:26:17;;;;;;;18.95;8.70;;;;;;;15.33;68.87;100244.71;126089;1095;22871;-55
2021/07/24 00:28:51;;;;;;;19.90;7.75;;;;;;;15.29;69.04;100247.77;125986;1096;22777;-58
2021/07/24 00:31:22;;;;;;;18.60;8.60;;;;;;;15.24;69.39;100248.55;126054;1095;22863;-58
2021/07/24 00:33:53;;;;;;;20.05;8.25;;;;;;;15.23;69.32;100246.22;126031;1095;22820;-56
2021/07/24 00:36:25;;;;;;;22.80;9.35;;;;;;;15.20;69.43;100244.45;126107;1096;22780;-57
2021/07/24 00:38:57;;;;;;;22.90;8.90;;;;;;;15.17;69.77;100253.89;126091;1095;22807;-60
2021/07/24 00:41:38;;;;;;;23.05;8.25;;;;;;;15.15;69.39;100245.20;126109;1096;22807;-60
2021/07/24 00:44:11;;;;;;;24.35;9.20;;;;;;;15.15;69.66;100253.64;126215;1096;26278;-58
2021/07/24 00:46:44;;;;;;;25.45;8.85;;;;;;;15.11;69.40;100237.03;126137;1096;22780;-58
2021/07/24 00:49:18;;;;;;;22.20;9.25;;;;;;;15.05;69.50;100247.50;126593;1096;25812;-58
2021/07/24 00:51:53;;;;;;;21.10;8.70;;;;;;;15.00;69.72;100244.70;126145;1096;26602;-57
2021/07/24 00:54:24;;;;;;;22.70;8.70;;;;;;;14.93;69.56;100236.75;126029;1095;22744;-58
2021/07/24 00:56:56;;;;;;;20.85;8.80;;;;;;;14.89;69.97;100241.86;126203;1095;24193;-57
2021/07/24 00:59:27;;;;;;;17.10;7.55;;;;;;;14.88;69.65;100234.69;126412;1095;22809;-58
2021/07/24 01:01:58;;;;;;;20.03;7.50;;;;;;;14.86;69.72;100235.20;126140;1095;27576;-57
2021/07/24 01:04:30;;;;;;;19.70;7.40;;;;;;;14.87;70.40;100230.36;126142;1095;27285;-57
2021/07/24 01:07:06;;;;;;;20.00;8.60;;;;;;;14.88;70.08;100220.63;126248;1095;23053;-57
2021/07/24 01:09:38;;;;;;;21.20;8.30;;;;;;;14.87;70.60;100221.93;126243;1095;22744;-58
2021/07/24 01:12:10;;;;;;;21.00;8.40;;;;;;;14.86;70.36;100232.39;126190;1096;24639;-58
2021/07/24 01:14:42;;;;;;;21.25;8.50;;;;;;;14.83;70.98;100227.80;126248;1095;27692;-57
2021/07/24 01:17:13;;;;;;;23.20;9.00;;;;;;;14.78;70.66;100228.55;126188;1095;22821;-57
2021/07/24 01:19:46;;;;;;;24.20;9.03;;;;;;;14.76;71.01;100233.91;126195;1096;24431;-59
2021/07/24 01:22:18;;;;;;;19.87;8.77;;;;;;;14.73;70.76;100234.17;126171;1095;24194;-56
2021/07/24 01:24:50;;;;;;;21.35;8.55;;;;;;;14.69;70.85;100231.59;126161;1095;22777;-57
2021/07/24 01:27:21;;;;;;;18.90;8.05;;;;;;;14.70;71.02;100235.17;126119;1094;22806;-58
2021/07/24 01:29:55;;;;;;;20.35;7.65;;;;;;;14.69;70.84;100233.66;126162;1096;22813;-58
2021/07/24 01:32:27;;;;;;;19.10;8.25;;;;;;;14.66;70.99;100235.43;126240;1095;24348;-57
2021/07/24 01:34:59;;;;;;;20.70;8.10;;;;;;;14.64;71.39;100240.80;126126;1096;25919;-57
2021/07/24 01:37:30;;;;;;;23.35;8.80;;;;;;;14.62;71.07;100240.53;126304;1096;26072;-56
2021/07/24 01:40:02;;;;;;;20.20;7.90;;;;;;;14.62;71.51;100240.53;126215;1095;25777;-56
2021/07/24 01:42:34;;;;;;;20.05;8.55;;;;;;;14.62;71.34;100234.91;126158;1095;25742;-56
2021/07/24 01:45:08;;;;;;;22.67;7.90;;;;;;;14.62;71.56;100234.14;126156;1095;22777;-57
2021/07/24 01:47:39;;;;;;;19.57;8.00;;;;;;;14.56;71.32;100231.32;126462;1095;22765;-60
2021/07/24 01:53:04;;;;;;;21.30;8.30;;;;;;;14.51;71.60;100226.44;126187;1095;22878;-55
2021/07/24 01:55:40;;;;;;;21.65;8.95;;;;;;;14.50;71.44;100227.73;126086;1095;22764;-56
2021/07/24 01:58:16;;;;;;;20.43;8.20;;;;;;;14.49;71.55;100218.53;126436;1095;22811;-59
2021/07/24 02:00:49;;;;;;;20.10;9.43;;;;;;;14.47;71.96;100221.08;126299;1094;22818;-58
2021/07/24 02:03:23;;;;;;;20.53;7.20;;;;;;;14.45;71.60;100220.05;126238;1095;22807;-58
2021/07/24 02:05:55;;;;;;;21.60;8.10;;;;;;;14.44;71.68;100216.46;126222;1094;24429;-57
2021/07/24 02:08:28;;;;;;;20.75;8.10;;;;;;;14.43;71.98;100214.17;126133;1096;22843;-58
2021/07/24 02:11:02;;;;;;;18.45;7.85;;;;;;;14.42;71.92;100212.65;126204;1095;26350;-59
2021/07/24 02:13:34;;;;;;;19.20;7.37;;;;;;;14.40;72.55;100213.13;126140;1096;24433;-58
2021/07/24 02:16:08;;;;;;;15.30;6.40;;;;;;;14.41;72.17;100217.48;126190;1096;27643;-57
2021/07/24 02:18:41;;;;;;;16.95;7.10;;;;;;;14.39;72.15;100216.45;126146;1096;22739;-58
2021/07/24 02:21:13;;;;;;;16.97;6.93;;;;;;;14.37;72.28;100219.00;126282;1095;23496;-58
2021/07/24 02:23:45;;;;;;;21.85;7.65;;;;;;;14.35;72.24;100204.70;126242;1096;22809;-58
2021/07/24 02:26:16;;;;;;;17.80;7.70;;;;;;;14.34;72.57;100214.38;126198;1096;24314;-57
2021/07/24 02:28:47;;;;;;;18.85;7.55;;;;;;;14.29;72.34;100207.50;126109;1095;23347;-58
2021/07/24 02:31:20;;;;;;;16.95;6.75;;;;;;;14.27;72.34;100203.63;126130;1095;27658;-59
2021/07/24 02:33:54;;;;;;;16.75;6.85;;;;;;;14.26;72.44;100210.50;126228;1095;24335;-57
2021/07/24 02:36:26;;;;;;;19.10;7.70;;;;;;;14.22;72.29;100205.13;126154;1096;27605;-57
2021/07/24 02:38:58;;;;;;;18.53;7.03;;;;;;;14.20;72.41;100209.71;126428;1095;22818;-58
2021/07/24 02:41:31;;;;;;;16.90;7.00;;;;;;;14.19;72.35;100208.97;126151;1095;22824;-56
2021/07/24 02:44:03;;;;;;;19.43;7.27;;;;;;;14.16;72.71;100209.96;126058;1096;23053;-58
2021/07/24 02:46:34;;;;;;;20.57;8.30;;;;;;;14.14;72.60;100206.89;126145;1096;22726;-58
2021/07/24 02:49:07;;;;;;;17.35;7.40;;;;;;;14.13;72.36;100204.59;126221;1096;27223;-56
2021/07/24 02:51:39;;;;;;;18.45;7.95;;;;;;;14.12;72.75;100205.86;126165;1096;25796;-59
2021/07/24 02:54:10;;;;;;;17.05;6.80;;;;;;;14.10;72.54;100205.59;126230;1095;22815;-58
2021/07/24 02:56:43;;;;;;;15.70;6.73;;;;;;;14.06;72.35;100205.84;126201;1095;22821;-57
2021/07/24 02:59:15;;;;;;;17.25;7.10;;;;;;;14.01;72.55;100203.02;126259;1094;22774;-57
2021/07/24 03:01:47;;;;;;;17.25;6.75;;;;;;;13.96;72.58;100207.33;126181;1095;22842;-55
2021/07/24 03:04:18;;;;;;;19.20;6.83;;;;;;;13.93;72.68;100210.35;126228;1096;24650;-58
2021/07/24 03:06:50;;;;;;;19.90;6.70;;;;;;;13.90;72.92;100214.19;126261;1096;22777;-58
2021/07/24 03:09:21;;;;;;;17.10;6.97;;;;;;;13.89;72.61;100210.60;126146;1096;24685;-58
2021/07/24 03:11:53;;;;;;;20.15;6.95;;;;;;;13.89;72.67;100210.60;126126;1094;22777;-58
2021/07/24 03:14:25;;;;;;;17.25;7.05;;;;;;;13.87;72.93;100213.14;126247;1095;26292;-58
2021/07/24 03:16:57;;;;;;;15.50;6.40;;;;;;;13.86;73.32;100206.02;126051;1095;22786;-57
2021/07/24 03:19:28;;;;;;;18.15;7.80;;;;;;;13.84;73.20;100207.78;125946;1095;22806;-59
2021/07/24 03:22:00;;;;;;;18.65;7.75;;;;;;;13.80;73.00;100214.38;125896;1095;22952;-58
2021/07/24 03:24:32;;;;;;;19.83;7.67;;;;;;;13.77;73.21;100214.63;126120;1095;22951;-60
2021/07/24 03:27:04;;;;;;;18.45;7.20;;;;;;;13.75;73.15;100214.36;126176;1096;23053;-60
2021/07/24 03:29:36;;;;;;;17.17;7.23;;;;;;;13.73;73.31;100217.67;126202;1095;22744;-58
2021/07/24 03:32:08;;;;;;;18.20;7.35;;;;;;;13.72;72.57;100210.52;126175;1096;24600;-56
2021/07/24 03:34:40;;;;;;;18.80;8.10;;;;;;;13.71;73.44;100214.60;126303;1095;22834;-57
2021/07/24 03:37:12;;;;;;;18.55;7.25;;;;;;;13.68;73.15;100207.17;126172;1096;22831;-58
2021/07/24 03:39:43;;;;;;;19.20;7.45;;;;;;;13.69;73.79;100219.17;126235;1095;25883;-58
2021/07/24 03:42:15;;;;;;;19.83;8.37;;;;;;;13.70;74.24;100226.30;126130;1095;25825;-57
2021/07/24 03:44:47;;;;;;;19.73;7.80;;;;;;;13.69;74.01;100211.53;126186;1096;22871;-58
2021/07/24 03:47:18;;;;;;;19.85;8.40;;;;;;;13.68;73.87;100218.39;126111;1096;27693;-57
2021/07/24 03:49:50;;;;;;;21.17;8.20;;;;;;;13.71;74.13;100214.60;126080;1096;24455;-59
2021/07/24 03:52:21;;;;;;;19.85;7.60;;;;;;;13.76;74.24;100215.88;126084;1096;24427;-60
2021/07/24 03:54:52;;;;;;;19.40;8.55;;;;;;;13.82;74.22;100218.73;125920;1095;22789;-58
2021/07/24 03:57:24;;;;;;;19.95;8.80;;;;;;;13.89;74.52;100218.25;125999;1096;22726;-60
2021/07/24 03:59:59;;;;;;;18.30;8.73;;;;;;;13.94;74.29;100215.48;126005;1095;26292;-60
2021/07/24 04:02:32;;;;;;;21.65;9.35;;;;;;;14.00;74.74;100223.92;126000;1095;22796;-57
2021/07/24 04:05:05;;;;;;;24.77;10.13;;;;;;;14.02;74.64;100218.58;126052;1096;22764;-58
2021/07/24 04:07:38;;;;;;;18.30;8.17;;;;;;;14.07;74.96;100218.59;125952;1095;22780;-57
2021/07/24 04:10:12;;;;;;;21.20;9.20;;;;;;;14.12;74.97;100217.86;126060;1096;25650;-57
2021/07/24 04:12:44;;;;;;;20.55;8.85;;;;;;;14.19;75.05;100219.42;126351;1095;22810;-59
2021/07/24 04:15:16;;;;;;;23.67;9.57;;;;;;;14.27;75.21;100209.24;126034;1096;22789;-60
2021/07/24 04:17:48;;;;;;;22.25;10.50;;;;;;;14.36;75.88;100220.29;126287;1096;22765;-58
2021/07/24 04:20:23;;;;;;;21.73;9.93;;;;;;;14.42;75.35;100219.01;126041;1095;24602;-58
2021/07/24 04:22:54;;;;;;;22.90;10.15;;;;;;;14.51;75.22;100212.40;126152;1095;22950;-58
2021/07/24 04:25:25;;;;;;;22.80;10.00;;;;;;;14.58;75.19;100220.34;126014;1096;25421;-57
2021/07/24 04:27:57;;;;;;;21.85;9.90;;;;;;;14.65;74.75;100216.28;125951;1095;26766;-58
2021/07/24 04:30:28;;;;;;;23.70;10.65;;;;;;;14.69;74.96;100220.34;125982;1095;22796;-58
2021/07/24 04:33:00;;;;;;;22.90;10.40;;;;;;;14.73;75.39;100208.88;126190;1095;27227;-57
2021/07/24 04:35:31;;;;;;;22.37;9.30;;;;;;;14.77;75.31;100210.17;125994;1096;25883;-57
2021/07/24 04:38:03;;;;;;;25.75;11.10;;;;;;;14.82;75.08;100208.63;125977;1096;22890;-59
2021/07/24 04:40:34;;;;;;;23.80;10.93;;;;;;;14.90;75.25;100209.65;125917;1096;22784;-59
2021/07/24 04:43:05;;;;;;;25.15;10.70;;;;;;;14.97;75.65;100198.69;125943;1096;22794;-57
2021/07/24 04:45:40;;;;;;;24.60;11.00;;;;;;;15.05;75.85;100205.33;125974;1096;22807;-62
2021/07/24 04:48:13;;;;;;;24.00;10.70;;;;;;;15.10;75.54;100203.80;125972;1096;22753;-63
2021/07/24 04:50:48;;;;;;;26.67;10.80;;;;;;;15.14;75.58;100202.27;125864;1096;24037;-59
2021/07/24 04:53:21;;;;;;;26.65;11.65;;;;;;;15.20;75.14;100199.45;126137;1095;22790;-60
2021/07/24 04:55:53;;;;;;;24.13;11.80;;;;;;;15.29;75.47;100202.76;126410;1096;22885;-60
2021/07/24 04:58:25;;;;;;;22.55;10.25;;;;;;;15.37;75.77;100209.40;125981;1094;22777;-60
2021/07/24 05:00:57;;;;;;;23.55;11.50;;;;;;;15.39;74.90;100204.02;126263;1096;22776;-60
2021/07/24 05:03:29;;;;;;;22.10;10.35;;;;;;;15.47;75.27;100207.13;127384;1096;22793;-61
2021/07/24 05:06:02;;;;;;;21.63;10.17;;;;;;;15.54;75.49;100209.41;126422;1095;24512;-58
2021/07/24 05:08:34;;;;;;;25.40;11.75;;;;;;;15.64;75.39;100212.73;126068;1096;26255;-59
2021/07/24 05:11:06;;;;;;;21.90;10.85;;;;;;;15.72;75.47;100211.70;126013;1095;25794;-58
2021/07/24 05:13:38;;;;;;;21.65;10.85;;;;;;;15.81;74.95;100207.81;126514;1096;24436;-59
2021/07/24 05:16:10;;;;;;;26.15;11.25;;;;;;;15.93;75.39;100209.33;126266;1096;22831;-60
2021/07/24 05:18:42;;;;;;;22.75;10.55;;;;;;;16.00;75.12;100203.92;126128;1096;22811;-64
2021/07/24 05:21:19;;;;;;;28.40;12.05;;;;;;;16.10;75.10;100210.02;126371;1095;25883;-60
2021/07/24 05:23:50;;;;;;;23.35;10.80;;;;;;;16.14;75.25;100214.10;126406;1096;22810;-59
2021/07/24 05:26:21;;;;;;;23.03;11.50;;;;;;;16.23;75.47;100217.91;126335;1096;22794;-59
2021/07/24 05:28:53;;;;;;;23.07;11.07;;;;;;;16.30;74.87;100208.92;126160;1096;23010;-58
2021/07/24 05:31:25;;;;;;;26.50;11.40;;;;;;;16.38;74.77;100216.31;126199;1096;22726;-60
2021/07/24 05:33:56;;;;;;;24.55;11.00;;;;;;;16.48;74.76;100216.77;126263;1096;27508;-59
2021/07/24 05:36:28;;;;;;;23.05;11.60;;;;;;;16.62;74.95;100215.69;126125;1094;25745;-60
2021/07/24 05:38:59;;;;;;;26.20;12.35;;;;;;;16.74;75.20;100214.33;126100;1095;22776;-59
2021/07/24 05:41:32;;;;;;;25.80;12.05;;;;;;;16.81;74.77;100220.19;126181;1095;22804;-60
2021/07/24 05:44:03;;;;;;;24.13;11.17;;;;;;;16.88;74.58;100207.59;126138;1096;22803;-58
2021/07/24 05:46:35;;;;;;;23.25;12.20;;;;;;;16.98;75.07;100205.97;126123;1095;22816;-59
2021/07/24 05:49:07;;;;;;;25.20;11.40;;;;;;;17.07;74.47;100204.88;126179;1095;26724;-60
2021/07/24 05:51:40;;;;;;;24.27;12.37;;;;;;;17.17;74.72;100211.72;126117;1095;28484;-59
2021/07/24 05:54:14;;;;;;;22.55;11.35;;;;;;;17.30;74.36;100206.98;126149;1096;22756;-58
2021/07/24 05:56:46;;;;;;;22.30;11.25;;;;;;;17.41;74.60;100209.70;126178;1095;22807;-59
2021/07/24 05:59:18;;;;;;;24.95;12.35;;;;;;;17.53;74.39;100213.98;126089;1095;22786;-60
2021/07/24 06:01:49;;;;;;;28.15;11.90;;;;;;;17.63;73.83;100217.21;125989;1096;25797;-60
2021/07/24 06:04:20;;;;;;;25.07;11.30;;;;;;;17.73;73.58;100224.80;126191;1096;22806;-61
2021/07/24 06:06:52;;;;;;;19.85;10.20;;;;;;;17.84;73.97;100215.45;126112;1095;22785;-59
2021/07/24 06:09:28;;;;;;;22.50;10.80;;;;;;;18.00;73.87;100214.50;126082;1095;22835;-59
2021/07/24 06:12:00;;;;;;;20.13;9.40;;;;;;;18.17;73.45;100215.07;126211;1096;22772;-59
2021/07/24 06:14:34;;;;;;;18.77;8.87;;;;;;;18.31;73.39;100218.77;126010;1096;24493;-59
2021/07/24 06:17:07;;;;;;;21.43;9.93;;;;;;;18.47;73.59;100214.98;126096;1095;22807;-59
2021/07/24 06:19:39;;;;;;;22.70;11.25;;;;;;;18.64;73.11;100214.75;126128;1094;26275;-59
2021/07/24 06:22:11;;;;;;;21.25;9.90;;;;;;;18.69;72.71;100206.18;126071;1095;22802;-61
2021/07/24 06:24:43;;;;;;;23.00;10.50;;;;;;;18.80;73.09;100214.52;126009;1095;22866;-60
2021/07/24 06:27:15;;;;;;;26.60;10.50;;;;;;;18.93;72.68;100211.72;126071;1096;23038;-60
2021/07/24 06:29:47;;;;;;;18.20;9.25;;;;;;;19.07;72.69;100209.72;126372;1093;22797;-61
2021/07/24 06:32:20;;;;;;;20.90;10.10;;;;;;;19.17;72.45;100210.84;125731;1093;25941;-61
2021/07/24 06:34:52;;;;;;;21.20;9.40;;;;;;;19.31;72.19;100209.57;125729;1093;22769;-62
2021/07/24 06:37:23;;;;;;;23.10;9.73;;;;;;;19.43;71.88;100213.77;125683;1093;22860;-61
2021/07/24 06:39:55;;;;;;;22.50;10.60;;;;;;;19.57;71.88;100214.56;125656;1093;22810;-62
2021/07/24 06:42:27;;;;;;;20.50;9.10;;;;;;;19.72;72.08;100211.98;125584;1093;26229;-61
2021/07/24 06:44:58;;;;;;;21.73;8.47;;;;;;;19.84;71.06;100219.70;125638;1093;22780;-62
2021/07/24 06:47:30;;;;;;;18.20;9.00;;;;;;;19.99;71.08;100219.16;125626;1093;22800;-62
2021/07/24 06:50:01;;;;;;;19.40;8.70;;;;;;;20.11;70.75;100214.82;125680;1093;22746;-62
2021/07/24 06:52:32;;;;;;;22.53;9.67;;;;;;;20.25;70.44;100230.53;125620;1093;22770;-62
2021/07/24 06:55:04;;;;;;;24.47;9.43;;;;;;;20.38;70.32;100221.98;125658;1094;27160;-62
2021/07/24 06:57:36;;;;;;;23.37;9.83;;;;;;;20.51;69.99;100219.14;125739;1093;22787;-62
2021/07/24 07:00:10;;;;;;;19.03;8.73;;;;;;;20.61;70.03;100211.69;125741;1094;24443;-62
2021/07/24 07:02:41;;;;;;;20.97;8.67;;;;;;;20.70;69.92;100205.56;125652;1092;22806;-61
2021/07/24 07:05:14;;;;;;;25.23;8.23;;;;;;;20.82;69.40;100221.02;125647;1093;22770;-62
2021/07/24 07:07:47;;;;;;;21.10;8.75;;;;;;;20.90;69.68;100212.58;125664;1093;22832;-62
2021/07/24 07:10:19;;;;;;;21.13;8.30;;;;;;;21.04;69.55;100221.84;125723;1093;23356;-62
2021/07/24 07:12:50;;;;;;;21.00;9.03;;;;;;;21.16;69.38;100208.90;125692;1092;27693;-62
2021/07/24 07:15:24;;;;;;;19.35;7.78;;;;;;;21.26;68.93;100216.38;125639;1093;25941;-62
2021/07/24 07:17:56;;;;;;;19.80;8.68;;;;;;;21.37;68.22;100218.19;125645;1093;27201;-62
2021/07/24 07:20:27;;;;;;;20.67;8.57;;;;;;;21.45;68.04;100211.26;125598;1093;22800;-62
2021/07/24 07:22:59;;;;;;;20.88;8.38;;;;;;;21.53;67.16;100211.31;125588;1093;26229;-62
2021/07/24 07:25:30;;;;;;;22.63;8.90;;;;;;;21.62;67.69;100216.50;125690;1093;27639;-62
2021/07/24 07:28:01;;;;;;;18.60;7.50;;;;;;;21.74;67.40;100207.13;125609;1091;22784;-62
2021/07/24 07:30:33;;;;;;;17.48;7.20;;;;;;;21.86;67.06;100212.52;125684;1092;22865;-62
2021/07/24 07:33:05;;;;;;;19.10;7.33;;;;;;;21.93;66.62;100214.66;125621;1093;22800;-62
2021/07/24 07:35:37;;;;;;;16.13;7.25;;;;;;;21.99;66.16;100218.88;125877;1093;22892;-62
2021/07/24 07:38:09;;;;;;;20.03;8.23;;;;;;;22.06;66.34;100217.38;125695;1093;22850;-62
2021/07/24 07:40:41;;;;;;;15.78;6.43;;;;;;;22.17;66.22;100212.15;125623;1093;22800;-62
2021/07/24 07:43:12;;;;;;;19.58;7.98;;;;;;;22.30;66.13;100217.72;125708;1093;22776;-62
2021/07/24 07:45:44;;;;;;;21.55;7.83;;;;;;;22.44;65.73;100216.27;125655;1093;24497;-62
2021/07/24 07:48:18;;;;;;;19.65;7.60;;;;;;;22.54;65.48;100211.56;125629;1093;22800;-62
2021/07/24 07:50:50;;;;;;;16.85;6.83;;;;;;;22.64;64.25;100220.34;125746;1093;27198;-62
2021/07/24 07:53:22;;;;;;;20.08;7.83;;;;;;;22.74;65.08;100221.32;125629;1093;22776;-61
2021/07/24 07:55:53;;;;;;;15.83;7.00;;;;;;;22.84;63.79;100210.94;125585;1093;22790;-61
2021/07/24 07:58:26;;;;;;;17.83;7.43;;;;;;;22.91;64.25;100207.33;125607;1093;24475;-62
2021/07/24 08:00:58;;;;;;;17.23;7.40;;;;;;;23.02;63.41;100209.83;125628;1093;22853;-62
2021/07/24 08:03:31;;;;;;;25.17;7.63;;;;;;;23.09;63.56;100205.48;125513;1093;27528;-62
2021/07/24 08:06:03;;;;;;;17.23;7.15;;;;;;;23.19;62.81;100207.20;125850;1093;22782;-62
2021/07/24 08:08:34;;;;;;;17.45;7.60;;;;;;;23.27;61.93;100207.97;125522;1093;22751;-62
2021/07/24 08:11:06;;;;;;;17.33;7.95;;;;;;;23.37;62.40;100210.27;125699;1093;22823;-61
2021/07/24 08:13:39;;;;;;;19.13;6.47;;;;;;;23.44;60.81;100203.82;125756;1093;27060;-62
2021/07/24 08:16:16;;;;;;;14.63;6.08;;;;;;;23.53;61.04;100200.38;125698;1093;22832;-62
2021/07/24 08:18:48;;;;;;;12.43;5.68;;;;;;;23.62;61.41;100199.81;125818;1093;22847;-62
2021/07/24 08:21:19;;;;;;;14.88;6.80;;;;;;;23.74;60.54;100198.86;125704;1093;27166;-60
2021/07/24 08:23:50;;;;;;;17.78;6.55;;;;;;;23.84;60.73;100199.02;125585;1093;22770;-61
2021/07/24 08:26:22;;;;;;;15.65;5.90;;;;;;;23.94;59.98;100192.16;125628;1093;22832;-68
2021/07/24 08:28:53;;;;;;;15.00;5.58;;;;;;;24.03;59.00;100188.76;125563;1093;23217;-59
2021/07/24 08:31:25;;;;;;;19.10;5.95;;;;;;;24.11;58.70;100182.28;125929;1093;22800;-60
2021/07/24 08:33:57;;;;;;;13.78;4.80;;;;;;;24.19;58.09;100178.05;125758;1093;22956;-60
2021/07/24 08:36:29;;;;;;;15.15;5.88;;;;;;;24.27;57.56;100175.19;125613;1093;22803;-60
2021/07/24 08:39:01;;;;;;;13.33;5.85;;;;;;;24.31;57.86;100173.46;125658;1093;27328;-60
2021/07/24 08:41:32;;;;;;;16.63;6.50;;;;;;;24.39;57.40;100182.75;125612;1093;25828;-60
2021/07/24 08:44:04;;;;;;;15.25;5.60;;;;;;;24.51;56.54;100169.56;125617;1093;25855;-62
2021/07/24 08:46:38;;;;;;;12.63;4.65;;;;;;;24.61;56.47;100173.31;125900;1092;28229;-61
2021/07/24 08:49:09;;;;;;;12.60;5.00;;;;;;;24.71;55.67;100165.64;125726;1092;22797;-61
2021/07/24 08:51:41;;;;;;;10.63;4.13;;;;;;;24.77;55.59;100169.05;125664;1093;27164;-61
2021/07/24 08:54:13;;;;;;;13.45;5.30;;;;;;;24.85;55.17;100158.34;125631;1093;22817;-62
2021/07/24 08:56:48;;;;;;;16.68;4.45;;;;;;;24.93;54.49;100160.40;125734;1093;22764;-61
2021/07/24 08:59:21;;;;;;;11.25;3.60;;;;;;;25.01;53.53;100161.86;125773;1093;25979;-61
2021/07/24 09:01:56;;;;;;;10.83;4.53;;;;;;;25.04;53.37;100143.55;125723;1093;23225;-60
2021/07/24 09:04:31;;;;;;;13.30;4.90;;;;;;;25.07;53.52;100150.20;125789;1094;22774;-61
2021/07/24 09:07:07;;;;;;;12.55;4.28;;;;;;;25.12;53.52;100149.22;125795;1093;22797;-60
2021/07/24 09:09:40;;;;;;;13.28;5.50;;;;;;;25.16;52.97;100149.57;125759;1093;27620;-62
2021/07/24 09:12:13;;;;;;;12.98;4.68;;;;;;;25.19;52.15;100140.58;125657;1093;22784;-61
2021/07/24 09:14:44;;;;;;;13.23;5.45;;;;;;;25.25;52.54;100134.62;125718;1093;22804;-61
2021/07/24 09:17:21;;;;;;;13.10;4.48;;;;;;;25.36;52.39;100137.01;125801;1093;22754;-61
2021/07/24 09:19:53;;;;;;;12.63;4.33;;;;;;;25.44;51.52;100134.87;125655;1093;22793;-61
2021/07/24 09:22:32;;;;;;;12.55;4.43;;;;;;;25.46;50.95;100123.60;125754;1093;22776;-61
2021/07/24 09:25:15;;;;;;;12.90;4.57;;;;;;;25.50;50.79;100132.52;125603;1093;27623;-61
2021/07/24 09:27:48;;;;;;;11.43;4.10;;;;;;;25.57;50.18;100121.00;126735;1093;26356;-62
2021/07/24 09:30:35;;;;;;;11.88;3.78;;;;;;;25.66;49.70;100125.30;125721;1093;22791;-61
2021/07/24 09:33:09;;;;;;;10.18;3.93;;;;;;;25.75;49.51;100121.78;125821;1093;22754;-62
2021/07/24 09:35:42;;;;;;;14.78;4.40;;;;;;;25.79;48.33;100119.27;125737;1093;26270;-61
2021/07/24 09:38:27;;;;;;;14.40;4.65;;;;;;;25.81;48.27;100112.94;125863;1094;22889;-61
2021/07/24 09:41:01;;;;;;;12.90;4.20;;;;;;;25.84;48.50;100131.80;125710;1093;23679;-61
2021/07/24 09:43:39;;;;;;;13.48;5.10;;;;;;;25.89;47.65;100130.77;125775;1093;22877;-61
2021/07/24 09:46:18;;;;;;;11.03;4.05;;;;;;;25.88;47.00;100123.55;125777;1093;22938;-61
2021/07/24 09:48:50;;;;;;;11.85;4.35;;;;;;;25.90;46.98;100118.00;125813;1093;22803;-61
2021/07/24 09:51:36;;;;;;;14.00;4.80;;;;;;;25.94;46.39;100116.23;125813;1093;22805;-61
2021/07/24 09:54:23;;;;;;;11.15;4.15;;;;;;;25.98;46.69;100118.66;125825;1094;22821;-61
2021/07/24 09:56:55;;;;;;;10.83;4.13;;;;;;;26.05;46.50;100132.13;125725;1092;22805;-61
2021/07/24 09:59:31;;;;;;;9.67;3.30;;;;;;;26.10;45.78;100129.03;125804;1093;22821;-61
2021/07/24 10:02:04;;;;;;;10.80;3.93;;;;;;;26.09;45.16;100127.51;125863;1093;22776;-61
2021/07/24 10:04:37;;;;;;;10.17;3.90;;;;;;;26.08;44.44;100120.29;125732;1092;22780;-61
2021/07/24 10:07:11;;;;;;;10.68;3.88;;;;;;;26.10;44.63;100113.97;125769;1093;23579;-60
2021/07/24 10:09:45;;;;;;;9.50;4.05;;;;;;;26.13;44.40;100121.38;125708;1093;22778;-61
2021/07/24 10:12:16;;;;;;;8.85;3.13;;;;;;;26.17;43.84;100122.47;126059;1093;24525;-60
2021/07/24 10:14:48;;;;;;;11.25;4.18;;;;;;;26.19;43.56;100114.05;125822;1093;24437;-60
2021/07/24 10:17:21;;;;;;;9.95;4.10;;;;;;;26.20;43.51;100109.83;125837;1093;24357;-61
2021/07/24 10:19:53;;;;;;;10.00;3.75;;;;;;;26.28;44.07;100107.63;126128;1093;22870;-61
2021/07/24 10:22:24;;;;;;;10.60;3.53;;;;;;;26.36;43.87;100118.99;125764;1092;22928;-61
2021/07/24 10:24:55;;;;;;;11.57;4.03;;;;;;;26.43;42.80;100118.11;125743;1093;22770;-62
2021/07/24 10:27:34;;;;;;;11.63;3.93;;;;;;;26.48;42.73;100111.38;125683;1093;22780;-61
2021/07/24 10:30:08;;;;;;;13.13;4.10;;;;;;;26.55;42.80;100115.48;125722;1093;28267;-61
2021/07/24 10:32:42;;;;;;;11.53;3.73;;;;;;;26.62;42.63;100114.61;125876;1093;22776;-61
2021/07/24 10:35:14;;;;;;;12.77;3.87;;;;;;;26.68;42.89;100115.85;125745;1092;22889;-61
2021/07/24 10:37:46;;;;;;;10.77;3.70;;;;;;;26.77;43.34;100123.77;125782;1093;27724;-61
2021/07/24 10:40:37;;;;;;;14.40;3.20;;;;;;;26.81;42.02;100120.47;125762;1093;22853;-61
2021/07/24 10:43:09;;;;;;;8.93;4.03;;;;;;;26.80;41.47;100119.70;125741;1093;22788;-60
2021/07/24 10:45:57;;;;;;;9.65;3.58;;;;;;;26.83;42.65;100115.66;125797;1094;22803;-60
2021/07/24 10:48:43;;;;;;;10.18;3.90;;;;;;;26.88;41.77;100113.88;125742;1093;25854;-61
2021/07/24 10:51:20;;;;;;;12.35;4.30;;;;;;;26.96;41.82;100109.52;125756;1093;26410;-62
2021/07/24 10:54:12;;;;;;;12.78;3.78;;;;;;;26.99;41.32;100113.30;125690;1093;23671;-61
2021/07/24 10:56:43;;;;;;;10.75;3.43;;;;;;;26.98;40.70;100108.94;125759;1093;24443;-61
2021/07/24 10:59:22;;;;;;;10.87;3.77;;;;;;;26.93;40.47;100107.86;125690;1093;26346;-61
2021/07/24 11:01:55;;;;;;;11.37;4.67;;;;;;;26.90;40.73;100096.84;125782;1093;25878;-63
2021/07/24 11:04:46;;;;;;;10.90;3.88;;;;;;;26.90;39.88;100100.45;125645;1093;22777;-62
2021/07/24 11:07:41;;;;;;;11.10;4.30;;;;;;;26.84;40.08;100102.84;125677;1092;22778;-61
2021/07/24 11:10:12;;;;;;;10.60;4.07;;;;;;;26.85;39.98;100090.04;125759;1093;22800;-61
2021/07/24 11:12:45;;;;;;;14.18;5.10;;;;;;;26.88;39.75;100083.10;125708;1093;25858;-62
2021/07/24 11:15:21;;;;;;;10.05;3.68;;;;;;;26.86;39.41;100076.45;125736;1093;27197;-63
2021/07/24 11:18:25;;;;;;;9.25;3.18;;;;;;;26.85;38.89;100081.45;125818;1093;22793;-61
2021/07/24 11:20:56;;;;;;;10.73;3.87;;;;;;;26.90;39.96;100079.66;125763;1093;24447;-62
2021/07/24 11:23:28;;;;;;;14.03;4.15;;;;;;;26.96;39.87;100077.27;126080;1093;22797;-62
2021/07/24 11:26:03;;;;;;;12.35;4.08;;;;;;;27.05;40.25;100077.29;125839;1093;24580;-62
2021/07/24 11:28:35;;;;;;;10.60;4.08;;;;;;;27.15;40.06;100080.93;125839;1093;22857;-63
2021/07/24 11:31:07;;;;;;;9.63;3.35;;;;;;;27.25;40.46;100080.97;125822;1093;22797;-62
2021/07/24 11:33:42;;;;;;;10.38;4.15;;;;;;;27.31;39.98;100078.57;125825;1091;22791;-62
2021/07/24 11:36:15;;;;;;;9.18;3.45;;;;;;;27.30;39.59;100082.78;125856;1093;22749;-64
2021/07/24 11:38:46;;;;;;;10.25;4.30;;;;;;;27.23;39.17;100086.52;125885;1093;22803;-67